< < Back
Terminal Aerodrome Forecast


Current Version              Previous Versions:   1  2  3  4  5  6  7  8  9  

Terminal Aerodrome Forecast

682
FTUS44 KMRX 300006 AAA
TAFTYS
TAF AMD
KTYS 300006Z 3000/3024 05005KT P6SM VCTS SCT060CB SCT130 BKN250
      TEMPO 3000/3001 VRB10G20KT 2SM +TSRA BR BKN020CB BKN040
     FM300300 23004KT P6SM BKN040 OVC250
     FM300800 VRB03KT 5SM BR BKN070
     FM301000 22003KT P6SM BKN025 OVC035
      TEMPO 3010/3013 2SM BR BKN015
     FM301400 23005KT P6SM BKN025
     FM301600 24009KT P6SM BKN035
     FM301800 25006KT P6SM SCT050 SCT250=

Latest METAR

522
SAUS80 KWBC 300100 RRA
MTRTYS
METAR KTYS 300053Z 08003KT 10SM FEW032 BKN090 BKN130 BKN250 24/22 A2998
RMK AO2 RAE32B34E46 TSE18 SLP141 P0022 T02390222


USA.gov is the U.S. government's official web portal to all federal, state and local government web resources and services.